createdAt,value
2019-04-29T00:00:28.013Z,99.90
2019-04-29T00:02:56.698Z,99.90
2019-04-29T00:05:26.181Z,99.90
2019-04-29T00:07:54.845Z,99.90
2019-04-29T00:10:23.623Z,99.90
2019-04-29T00:12:52.290Z,99.90
2019-04-29T00:15:21.128Z,99.90
2019-04-29T00:17:49.790Z,99.90
2019-04-29T00:20:18.522Z,99.90
2019-04-29T00:22:47.138Z,99.90
2019-04-29T00:25:15.871Z,99.90
2019-04-29T00:27:44.493Z,99.90
2019-04-29T00:30:13.421Z,99.90
2019-04-29T00:32:42.038Z,99.90
2019-04-29T00:35:10.704Z,99.90
2019-04-29T00:37:39.388Z,99.90
2019-04-29T00:40:08.300Z,99.90
2019-04-29T00:42:36.975Z,99.90
2019-04-29T00:45:06.832Z,99.90
2019-04-29T00:47:35.439Z,99.90
2019-04-29T00:50:07.682Z,99.90
2019-04-29T00:52:36.349Z,99.90
2019-04-29T00:55:05.574Z,99.90
2019-04-29T00:57:34.237Z,99.90
2019-04-29T01:00:04.762Z,99.90
2019-04-29T01:02:33.375Z,99.90
2019-04-29T01:05:02.062Z,99.90
2019-04-29T01:07:30.722Z,99.90
2019-04-29T01:09:59.338Z,99.90
2019-04-29T01:12:27.949Z,99.90
2019-04-29T01:14:56.613Z,99.90
2019-04-29T01:17:25.273Z,99.90
2019-04-29T01:19:53.939Z,99.90
2019-04-29T01:22:23.593Z,99.90
2019-04-29T01:24:52.296Z,99.90
2019-04-29T01:27:21.040Z,99.90
2019-04-29T01:29:49.651Z,99.90
2019-04-29T01:32:18.355Z,99.90
2019-04-29T01:34:46.971Z,99.90
2019-04-29T01:37:15.638Z,99.90
2019-04-29T01:39:44.251Z,99.90
2019-04-29T01:42:12.903Z,99.90
2019-04-29T01:44:41.574Z,99.90
2019-04-29T01:47:10.366Z,99.90
2019-04-29T01:49:38.977Z,99.90
2019-04-29T01:52:07.587Z,99.90
2019-04-29T01:54:36.254Z,99.90
2019-04-29T01:57:04.928Z,99.90
2019-04-29T01:59:33.594Z,99.90
2019-04-29T02:02:02.279Z,99.90
2019-04-29T02:04:30.888Z,99.90
2019-04-29T02:06:59.548Z,99.90
2019-04-29T02:09:28.158Z,99.90
2019-04-29T02:11:56.926Z,99.90
2019-04-29T02:14:25.531Z,99.90
2019-04-29T02:16:54.189Z,99.90
2019-04-29T02:19:22.801Z,99.90
2019-04-29T02:21:51.460Z,99.90
2019-04-29T02:24:20.113Z,99.90
2019-04-29T02:26:48.762Z,99.90
2019-04-29T02:29:17.369Z,99.90
2019-04-29T02:31:46.026Z,99.90
2019-04-29T02:34:14.626Z,99.90
2019-04-29T02:36:43.281Z,99.90
2019-04-29T02:39:12.960Z,99.90
2019-04-29T02:41:41.617Z,99.90
2019-04-29T02:44:10.270Z,99.90
2019-04-29T02:46:38.923Z,99.90
2019-04-29T02:49:07.530Z,99.90
2019-04-29T02:51:36.189Z,99.90
2019-04-29T02:54:04.869Z,99.90
2019-04-29T02:56:33.529Z,99.90
2019-04-29T02:59:02.469Z,99.90
2019-04-29T03:01:31.154Z,99.90
2019-04-29T03:03:59.797Z,99.90
2019-04-29T03:06:28.631Z,99.90
2019-04-29T03:08:57.288Z,99.90
2019-04-29T03:11:25.999Z,99.90
2019-04-29T03:13:54.664Z,99.90
2019-04-29T03:16:23.367Z,99.90
2019-04-29T03:18:53.192Z,99.90
2019-04-29T03:21:21.855Z,99.90
2019-04-29T03:23:50.643Z,99.90
2019-04-29T03:26:19.244Z,99.90
2019-04-29T03:28:47.896Z,99.90
2019-04-29T03:31:16.518Z,99.90
2019-04-29T03:33:45.177Z,99.90
2019-04-29T03:36:13.988Z,99.90
2019-04-29T03:38:42.646Z,99.90
2019-04-29T03:41:11.257Z,99.90
2019-04-29T03:43:39.912Z,99.90
2019-04-29T03:46:08.569Z,99.90
2019-04-29T03:48:37.225Z,99.90
2019-04-29T03:51:05.832Z,99.90
2019-04-29T03:53:34.488Z,99.90
2019-04-29T03:56:03.173Z,99.90
2019-04-29T03:58:31.789Z,99.90
2019-04-29T04:01:00.444Z,99.90
2019-04-29T04:03:29.106Z,99.90
2019-04-29T04:05:57.756Z,99.90
2019-04-29T04:08:26.358Z,99.90
2019-04-29T04:10:55.009Z,99.90
2019-04-29T04:13:23.669Z,99.90
2019-04-29T04:15:52.282Z,99.90
2019-04-29T04:18:20.941Z,99.90
2019-04-29T04:20:49.671Z,99.90
2019-04-29T04:23:18.311Z,99.90
2019-04-29T04:25:47.056Z,99.90
2019-04-29T04:28:15.734Z,99.90
2019-04-29T04:30:44.378Z,99.90
2019-04-29T04:33:13.035Z,99.90
2019-04-29T04:35:41.698Z,99.90
2019-04-29T04:38:10.353Z,99.90
2019-04-29T04:40:39.181Z,99.90
2019-04-29T04:43:07.836Z,99.90
2019-04-29T04:45:36.443Z,99.90
2019-04-29T04:48:05.265Z,99.90
2019-04-29T04:50:33.918Z,99.90
2019-04-29T04:53:02.538Z,99.90
2019-04-29T04:55:31.233Z,99.90
2019-04-29T04:57:59.887Z,99.90
2019-04-29T05:00:28.709Z,99.90
2019-04-29T05:02:57.494Z,99.90
2019-04-29T05:05:27.172Z,99.90
2019-04-29T05:07:55.828Z,99.90
2019-04-29T05:10:24.508Z,99.90
2019-04-29T05:12:53.165Z,99.90
2019-04-29T05:15:21.848Z,99.90
2019-04-29T05:17:53.014Z,99.90
2019-04-29T05:20:20.841Z,99.90
2019-04-29T05:22:49.500Z,99.90
2019-04-29T05:25:18.111Z,99.90
2019-04-29T05:27:46.771Z,99.90
2019-04-29T05:30:15.433Z,99.90
2019-04-29T05:32:44.048Z,99.90
2019-04-29T05:35:12.706Z,99.90
2019-04-29T05:37:41.369Z,99.90
2019-04-29T05:40:10.415Z,99.90
2019-04-29T05:42:39.088Z,99.90
2019-04-29T05:45:09.407Z,99.90
2019-04-29T05:47:38.017Z,99.90
2019-04-29T05:50:07.585Z,99.90
2019-04-29T05:52:39.510Z,99.90
2019-04-29T05:55:09.576Z,99.90
2019-04-29T05:57:37.315Z,99.90
2019-04-29T06:00:06.362Z,99.90
2019-04-29T06:02:38.704Z,99.90
2019-04-29T06:05:07.492Z,99.90
2019-04-29T06:07:36.139Z,99.90
2019-04-29T06:10:06.603Z,99.90
2019-04-29T06:12:35.742Z,99.90
2019-04-29T06:15:07.069Z,99.90
2019-04-29T06:17:35.680Z,99.90
2019-04-29T06:20:08.714Z,99.90
2019-04-29T06:22:37.994Z,99.90
2019-04-29T06:25:07.991Z,99.90
2019-04-29T06:27:36.624Z,99.90
2019-04-29T06:30:09.160Z,99.90
2019-04-29T06:32:37.825Z,99.90
2019-04-29T06:35:10.598Z,99.90
2019-04-29T06:37:37.490Z,99.90
2019-04-29T06:40:07.269Z,99.90
2019-04-29T06:42:36.071Z,99.90
2019-04-29T06:45:06.597Z,99.90
2019-04-29T06:47:35.273Z,99.90
2019-04-29T06:50:07.399Z,99.90
2019-04-29T06:52:36.058Z,99.90
2019-04-29T06:55:05.717Z,99.90
2019-04-29T06:57:34.373Z,99.90
2019-04-29T07:00:06.368Z,99.90
2019-04-29T07:02:35.020Z,99.90
2019-04-29T07:05:05.276Z,99.90
2019-04-29T07:07:33.934Z,99.90
2019-04-29T07:10:02.884Z,99.90
2019-04-29T07:12:31.536Z,99.90
2019-04-29T07:15:00.144Z,99.90
2019-04-29T07:17:28.805Z,99.90
2019-04-29T07:20:01.695Z,99.90
2019-04-29T07:22:30.926Z,99.90
2019-04-29T07:24:58.139Z,99.90
2019-04-29T07:27:26.795Z,99.90
2019-04-29T07:29:55.410Z,99.90
2019-04-29T07:32:24.067Z,99.90
2019-04-29T07:34:52.692Z,99.90
2019-04-29T07:37:21.346Z,99.90
2019-04-29T07:39:50.092Z,99.90
2019-04-29T07:42:18.776Z,99.90
2019-04-29T07:44:48.807Z,99.90
2019-04-29T07:47:17.772Z,99.90
2019-04-29T07:49:47.302Z,99.90
2019-04-29T07:52:16.797Z,99.90
2019-04-29T07:54:48.234Z,99.90
2019-04-29T07:57:16.457Z,99.90
2019-04-29T07:59:46.200Z,99.90
2019-04-29T08:02:14.811Z,99.90
2019-04-29T08:04:43.422Z,99.90
2019-04-29T08:07:12.342Z,99.90
2019-04-29T08:09:44.195Z,99.90
2019-04-29T08:12:12.416Z,99.90
2019-04-29T08:14:42.468Z,99.90
2019-04-29T08:17:11.238Z,99.90
2019-04-29T08:19:39.842Z,99.90
2019-04-29T08:22:08.519Z,99.90
2019-04-29T08:24:37.482Z,99.90
2019-04-29T08:27:06.320Z,99.90
2019-04-29T08:29:35.849Z,99.90
2019-04-29T08:32:05.467Z,99.90
2019-04-29T08:34:34.125Z,99.90
2019-04-29T08:37:02.782Z,99.90
2019-04-29T08:39:31.387Z,99.90
2019-04-29T08:42:03.777Z,99.90
2019-04-29T08:44:30.381Z,99.90
2019-04-29T08:46:59.041Z,99.90
2019-04-29T08:49:27.651Z,99.90
2019-04-29T08:51:56.376Z,99.90
2019-04-29T08:54:24.987Z,99.90
2019-04-29T08:57:02.922Z,99.90
2019-04-29T08:59:24.554Z,99.90
2019-04-29T09:01:54.423Z,99.90
2019-04-29T09:04:23.074Z,99.90
2019-04-29T09:06:51.856Z,99.90
2019-04-29T09:09:29.238Z,99.90
2019-04-29T09:11:50.888Z,99.90
2019-04-29T09:14:19.549Z,99.90
2019-04-29T09:16:48.166Z,99.90
2019-04-29T09:19:16.829Z,99.90
2019-04-29T09:21:45.446Z,99.90
2019-04-29T09:24:14.157Z,99.90
2019-04-29T09:26:42.843Z,99.90
2019-04-29T09:29:11.510Z,99.90
2019-04-29T09:31:40.124Z,99.90
2019-04-29T09:34:08.790Z,99.90
2019-04-29T09:36:37.407Z,99.90
2019-04-29T09:39:06.240Z,99.90
2019-04-29T09:41:35.225Z,99.90
2019-04-29T09:44:13.498Z,99.90
2019-04-29T09:46:42.108Z,99.90
2019-04-29T09:49:10.773Z,99.90
2019-04-29T09:51:39.384Z,99.90
2019-04-29T09:54:09.686Z,99.90
2019-04-29T09:56:38.463Z,99.90
2019-04-29T09:59:07.122Z,99.90
2019-04-29T10:01:35.732Z,99.90
2019-04-29T10:04:04.462Z,99.90
2019-04-29T10:06:33.073Z,99.90
2019-04-29T10:09:01.738Z,99.90
2019-04-29T10:11:30.475Z,99.90
2019-04-29T10:13:59.136Z,99.90
2019-04-29T10:16:27.747Z,99.90
2019-04-29T10:18:56.409Z,99.90
2019-04-29T10:21:25.025Z,99.90
2019-04-29T10:23:53.689Z,99.90
2019-04-29T10:26:22.315Z,99.90
2019-04-29T10:28:50.979Z,99.90
2019-04-29T10:31:19.865Z,99.90
2019-04-29T10:33:50.213Z,99.90
2019-04-29T10:36:20.650Z,99.90
2019-04-29T10:38:49.405Z,99.90
2019-04-29T10:41:19.758Z,99.90
2019-04-29T10:43:49.465Z,99.90
2019-04-29T10:46:18.812Z,99.90
2019-04-29T10:48:47.427Z,99.90
2019-04-29T10:51:16.102Z,99.90
2019-04-29T10:53:46.738Z,99.90
2019-04-29T10:56:15.049Z,99.90
2019-04-29T10:58:43.880Z,99.90
2019-04-29T11:01:31.515Z,99.90
2019-04-29T11:04:02.497Z,99.90
2019-04-29T11:06:31.406Z,99.90
2019-04-29T11:09:01.359Z,99.90
2019-04-29T11:11:31.552Z,99.90
2019-04-29T11:14:01.564Z,99.90
2019-04-29T11:16:45.916Z,99.90
2019-04-29T11:19:05.162Z,99.90
2019-04-29T11:21:31.485Z,99.90
2019-04-29T11:24:00.153Z,99.90
2019-04-29T11:26:28.830Z,99.90
2019-04-29T11:28:57.499Z,99.90
2019-04-29T11:31:26.115Z,99.90
2019-04-29T11:33:54.770Z,99.90
2019-04-29T11:36:23.545Z,99.90
2019-04-29T11:38:52.208Z,99.90
2019-04-29T11:41:21.603Z,99.90
2019-04-29T11:43:50.966Z,99.90
2019-04-29T11:46:21.121Z,99.90
2019-04-29T11:48:49.947Z,99.90
2019-04-29T11:51:18.561Z,99.90
2019-04-29T11:53:47.225Z,99.90
2019-04-29T11:56:15.899Z,99.90
2019-04-29T11:58:44.515Z,99.90
2019-04-29T12:01:13.129Z,99.90
2019-04-29T12:03:41.788Z,99.90
2019-04-29T12:06:10.788Z,99.90
2019-04-29T12:08:39.407Z,99.90
2019-04-29T12:11:08.069Z,99.90
2019-04-29T12:13:36.728Z,99.90
2019-04-29T12:16:05.353Z,99.90
2019-04-29T12:18:37.977Z,99.90
2019-04-29T12:21:04.711Z,99.90
2019-04-29T12:23:33.361Z,99.90
2019-04-29T12:26:03.469Z,99.90
2019-04-29T12:28:32.355Z,99.90
2019-04-29T12:31:01.077Z,99.90
2019-04-29T12:33:32.532Z,99.90
2019-04-29T12:36:03.356Z,99.90
2019-04-29T12:38:39.714Z,99.90
2019-04-29T12:41:00.805Z,99.90
2019-04-29T12:43:32.213Z,99.90
2019-04-29T12:46:00.206Z,99.90
2019-04-29T12:48:28.892Z,99.90
2019-04-29T12:50:57.833Z,99.90
2019-04-29T12:53:26.692Z,99.90
2019-04-29T12:55:55.497Z,99.90
2019-04-29T12:58:25.886Z,99.90
2019-04-29T13:00:59.685Z,99.90
2019-04-29T13:03:25.165Z,99.90
2019-04-29T13:05:58.469Z,99.90
2019-04-29T13:08:26.174Z,99.90
2019-04-29T13:10:54.562Z,99.90
2019-04-29T13:13:23.227Z,99.90
2019-04-29T13:15:54.390Z,99.90
2019-04-29T13:18:23.510Z,99.90
2019-04-29T13:20:53.699Z,99.90
2019-04-29T13:23:33.632Z,99.90
2019-04-29T13:25:56.024Z,99.90
2019-04-29T13:28:30.726Z,99.90
2019-04-29T13:30:56.938Z,99.90
2019-04-29T13:33:23.994Z,99.90
2019-04-29T13:35:52.674Z,99.90
2019-04-29T13:38:21.458Z,99.90
2019-04-29T13:40:50.074Z,99.90
2019-04-29T13:43:20.691Z,99.90
2019-04-29T13:45:49.065Z,99.90
2019-04-29T13:48:17.777Z,99.90
2019-04-29T13:50:46.500Z,99.90
2019-04-29T13:53:16.730Z,99.90
2019-04-29T13:55:49.147Z,99.90
2019-04-29T13:58:16.204Z,99.90
2019-04-29T14:00:44.869Z,99.90
2019-04-29T14:03:13.484Z,99.90
2019-04-29T14:05:42.146Z,99.90
2019-04-29T14:08:10.764Z,99.90
2019-04-29T14:10:39.428Z,99.90
2019-04-29T14:13:15.181Z,99.90
2019-04-29T14:15:40.470Z,99.90
2019-04-29T14:18:11.581Z,99.90
2019-04-29T14:20:39.664Z,99.90
2019-04-29T14:23:08.287Z,99.90
2019-04-29T14:25:36.953Z,99.90
2019-04-29T14:28:05.560Z,99.90
2019-04-29T14:30:38.905Z,99.90
2019-04-29T14:33:04.643Z,99.90
2019-04-29T14:35:36.111Z,99.90
2019-04-29T14:38:05.090Z,99.90
2019-04-29T14:40:33.290Z,99.90
2019-04-29T14:43:03.022Z,99.90
2019-04-29T14:45:32.366Z,99.90
2019-04-29T14:48:01.086Z,99.90
2019-04-29T14:50:29.748Z,99.90
2019-04-29T14:52:58.361Z,99.90
2019-04-29T14:55:27.193Z,99.90
2019-04-29T14:57:55.981Z,99.90
2019-04-29T15:00:24.801Z,99.90
2019-04-29T15:02:55.979Z,99.90
2019-04-29T15:05:23.951Z,99.90
2019-04-29T15:07:52.736Z,99.90
2019-04-29T15:10:21.484Z,99.90
2019-04-29T15:12:51.946Z,99.90
2019-04-29T15:15:20.506Z,99.90
2019-04-29T15:17:49.116Z,99.90
2019-04-29T15:20:17.790Z,99.90
2019-04-29T15:22:46.386Z,99.90
2019-04-29T15:25:16.781Z,99.90
2019-04-29T15:27:45.970Z,99.90
2019-04-29T15:30:17.701Z,99.90
2019-04-29T15:32:46.371Z,99.30
2019-04-29T15:35:15.051Z,97.80
2019-04-29T15:37:43.786Z,97.50
2019-04-29T15:40:12.636Z,97.50
2019-04-29T15:42:42.683Z,95.50
2019-04-29T15:45:11.981Z,95.10
2019-04-29T15:47:41.657Z,92.70
2019-04-29T15:50:18.793Z,90.80
2019-04-29T15:52:41.869Z,92.20
2019-04-29T15:55:10.608Z,93.30
2019-04-29T15:57:39.271Z,93.80
2019-04-29T16:00:21.386Z,94.80
2019-04-29T16:02:41.436Z,93.50
2019-04-29T16:05:12.816Z,94.20
2019-04-29T16:07:46.268Z,93.90
2019-04-29T16:10:14.423Z,93.50
2019-04-29T16:12:45.514Z,94.50
2019-04-29T16:15:12.677Z,95.40
2019-04-29T16:17:41.354Z,95.40
2019-04-29T16:20:10.362Z,96.20
2019-04-29T16:22:39.404Z,95.10
2019-04-29T16:25:11.122Z,95.30
2019-04-29T16:27:41.722Z,94.40
2019-04-29T16:30:10.551Z,95.50
2019-04-29T16:32:39.355Z,94.40
2019-04-29T16:35:09.990Z,94.60
2019-04-29T16:37:38.878Z,95.10
2019-04-29T16:40:08.754Z,94.90
2019-04-29T16:42:37.574Z,94.60
2019-04-29T16:45:12.167Z,94.50
2019-04-29T16:47:39.914Z,94.70
2019-04-29T16:50:08.710Z,94.50
2019-04-29T16:52:44.163Z,94.70
2019-04-29T16:55:08.040Z,94.60
2019-04-29T16:57:36.714Z,94.10
2019-04-29T17:00:24.055Z,93.00
2019-04-29T17:02:52.715Z,93.60
2019-04-29T17:05:21.743Z,93.00
2019-04-29T17:07:50.537Z,93.10
2019-04-29T17:10:19.262Z,92.20
2019-04-29T17:12:47.924Z,91.30
2019-04-29T17:15:24.654Z,91.60
2019-04-29T17:17:47.022Z,91.20
2019-04-29T17:20:16.178Z,90.70
2019-04-29T17:22:44.932Z,92.10
2019-04-29T17:25:14.001Z,91.00
2019-04-29T17:27:45.333Z,90.30
2019-04-29T17:30:13.288Z,90.00
2019-04-29T17:32:47.044Z,90.10
2019-04-29T17:35:12.625Z,90.40
2019-04-29T17:37:41.482Z,90.40
2019-04-29T17:40:10.642Z,90.90
2019-04-29T17:42:39.298Z,91.10
2019-04-29T17:45:15.552Z,90.50
2019-04-29T17:47:42.602Z,91.10
2019-04-29T17:50:09.452Z,90.50
2019-04-29T17:52:38.146Z,89.90
2019-04-29T17:55:07.642Z,90.70
2019-04-29T17:57:36.520Z,90.40
2019-04-29T18:00:09.952Z,90.10
2019-04-29T18:02:38.646Z,90.40
2019-04-29T18:05:07.495Z,90.40
2019-04-29T18:07:36.229Z,90.90
2019-04-29T18:10:06.997Z,90.60
2019-04-29T18:12:41.114Z,90.80
2019-04-29T18:15:10.711Z,90.20
2019-04-29T18:17:38.408Z,90.40
2019-04-29T18:20:13.477Z,91.50
2019-04-29T18:22:37.881Z,90.90
2019-04-29T18:25:06.785Z,91.30
2019-04-29T18:27:36.878Z,91.00
2019-04-29T18:30:07.133Z,91.70
2019-04-29T18:32:41.874Z,90.80
2019-04-29T18:35:06.702Z,90.50
2019-04-29T18:37:38.405Z,90.10
2019-04-29T18:40:06.155Z,90.60
2019-04-29T18:42:38.539Z,91.00
2019-04-29T18:45:06.565Z,91.40
2019-04-29T18:47:38.626Z,89.50
2019-04-29T18:50:08.988Z,90.50
2019-04-29T18:52:37.641Z,90.60
2019-04-29T18:55:07.236Z,90.50
2019-04-29T18:57:35.916Z,90.60
2019-04-29T19:00:12.379Z,90.90
2019-04-29T19:02:45.478Z,90.30
2019-04-29T19:05:08.249Z,90.50
2019-04-29T19:07:39.673Z,90.50
2019-04-29T19:10:14.343Z,90.20
2019-04-29T19:12:39.444Z,90.80
2019-04-29T19:15:11.769Z,91.20
2019-04-29T19:17:40.091Z,90.80
2019-04-29T19:20:13.068Z,90.80
2019-04-29T19:22:44.018Z,91.10
2019-04-29T19:25:12.153Z,91.20
2019-04-29T19:27:41.136Z,91.20
2019-04-29T19:30:14.276Z,91.60
2019-04-29T19:32:40.462Z,91.60
2019-04-29T19:35:11.249Z,91.80
2019-04-29T19:37:40.161Z,91.90
2019-04-29T19:40:09.298Z,92.50
2019-04-29T19:42:39.685Z,92.10
2019-04-29T19:45:13.162Z,92.30
2019-04-29T19:47:39.159Z,92.40
2019-04-29T19:50:10.418Z,93.50
2019-04-29T19:52:38.955Z,93.30
2019-04-29T19:55:07.910Z,93.20
2019-04-29T19:57:42.193Z,93.80
2019-04-29T20:00:08.740Z,93.30
2019-04-29T20:02:45.195Z,93.40
2019-04-29T20:05:09.580Z,94.40
2019-04-29T20:07:42.154Z,94.10
2019-04-29T20:10:10.728Z,94.00
2019-04-29T20:12:39.850Z,94.80
2019-04-29T20:15:09.847Z,94.90
2019-04-29T20:17:38.935Z,95.60
2019-04-29T20:20:08.390Z,94.90
2019-04-29T20:22:41.494Z,95.30
2019-04-29T20:25:08.754Z,95.60
2019-04-29T20:27:37.933Z,95.60
2019-04-29T20:30:15.992Z,95.80
2019-04-29T20:32:38.448Z,95.90
2019-04-29T20:35:10.209Z,96.30
2019-04-29T20:37:39.244Z,96.70
2019-04-29T20:40:08.886Z,96.50
2019-04-29T20:42:40.379Z,96.90
2019-04-29T20:45:08.623Z,97.10
2019-04-29T20:47:41.659Z,97.20
2019-04-29T20:50:13.856Z,97.40
2019-04-29T20:52:40.042Z,98.10
2019-04-29T20:55:09.859Z,97.80
2019-04-29T20:57:38.744Z,97.80
2019-04-29T21:00:08.007Z,98.30
2019-04-29T21:02:37.443Z,98.80
2019-04-29T21:05:09.651Z,99.30
2019-04-29T21:07:37.224Z,99.10
2019-04-29T21:10:08.558Z,99.70
2019-04-29T21:12:38.409Z,99.50
2019-04-29T21:15:14.908Z,99.90
2019-04-29T21:17:40.342Z,99.90
2019-04-29T21:20:08.894Z,99.90
2019-04-29T21:22:37.503Z,99.90
2019-04-29T21:25:07.395Z,99.90
2019-04-29T21:27:36.004Z,99.90
2019-04-29T21:30:06.665Z,99.90
2019-04-29T21:32:38.843Z,99.90
2019-04-29T21:35:10.287Z,99.90
2019-04-29T21:37:39.986Z,99.90
2019-04-29T21:40:14.620Z,99.90
2019-04-29T21:42:40.046Z,99.90
2019-04-29T21:45:09.103Z,99.90
2019-04-29T21:47:43.481Z,99.90
2019-04-29T21:50:09.317Z,99.90
2019-04-29T21:52:38.697Z,99.90
2019-04-29T21:55:07.587Z,99.90
2019-04-29T21:57:36.191Z,99.90
2019-04-29T22:00:07.630Z,99.90
2019-04-29T22:02:36.242Z,99.90
2019-04-29T22:05:09.581Z,99.90
2019-04-29T22:07:39.874Z,99.90
2019-04-29T22:10:07.906Z,99.90
2019-04-29T22:12:36.733Z,99.90
2019-04-29T22:15:07.078Z,99.90
2019-04-29T22:17:36.100Z,99.90
2019-04-29T22:20:07.750Z,99.90
2019-04-29T22:22:36.777Z,99.90
2019-04-29T22:25:09.843Z,99.90
2019-04-29T22:27:39.363Z,99.90
2019-04-29T22:30:16.792Z,99.90
2019-04-29T22:32:42.419Z,99.90
2019-04-29T22:35:11.766Z,99.90
2019-04-29T22:37:40.424Z,99.90
2019-04-29T22:40:09.376Z,99.90
2019-04-29T22:42:38.023Z,99.90
2019-04-29T22:45:08.064Z,99.90
2019-04-29T22:47:36.722Z,99.90
2019-04-29T22:50:05.945Z,99.90
2019-04-29T22:52:34.880Z,99.90
2019-04-29T22:55:07.037Z,99.90
2019-04-29T22:57:35.647Z,99.90
2019-04-29T23:00:07.892Z,99.90
2019-04-29T23:02:36.485Z,99.90
2019-04-29T23:05:05.824Z,99.90
2019-04-29T23:07:35.573Z,99.90
2019-04-29T23:10:06.970Z,99.90
2019-04-29T23:12:35.624Z,99.90
2019-04-29T23:15:06.236Z,99.90
2019-04-29T23:17:35.403Z,99.90
2019-04-29T23:20:08.666Z,99.90
2019-04-29T23:22:37.271Z,99.90
2019-04-29T23:25:06.133Z,99.90
2019-04-29T23:27:36.066Z,99.90
2019-04-29T23:30:07.293Z,99.90
2019-04-29T23:32:39.431Z,99.90
2019-04-29T23:35:09.747Z,99.90
2019-04-29T23:37:38.061Z,99.90
2019-04-29T23:40:07.432Z,99.90
2019-04-29T23:42:36.038Z,99.90
2019-04-29T23:45:06.050Z,99.90
2019-04-29T23:47:35.757Z,99.90
2019-04-29T23:50:05.363Z,99.90
2019-04-29T23:52:35.805Z,99.90
2019-04-29T23:55:07.808Z,99.90
2019-04-29T23:57:36.518Z,99.90
